createdAt,value
2022-08-28T00:00:38.178Z,46.20
2022-08-28T00:03:05.751Z,46.30
2022-08-28T00:05:34.138Z,55.40
2022-08-28T00:08:02.130Z,47.20
2022-08-28T00:10:29.200Z,46.70
2022-08-28T00:12:57.482Z,46.60
2022-08-28T00:15:31.961Z,46.10
2022-08-28T00:17:59.432Z,55.40
2022-08-28T00:20:27.598Z,47.00
2022-08-28T00:22:55.598Z,47.20
2022-08-28T00:25:24.266Z,46.50
2022-08-28T00:27:52.909Z,46.20
2022-08-28T00:30:27.403Z,46.00
2022-08-28T00:32:56.848Z,45.60
2022-08-28T00:35:24.123Z,45.60
2022-08-28T00:37:51.812Z,46.50
2022-08-28T00:40:28.969Z,45.80
2022-08-28T00:43:02.496Z,55.60
2022-08-28T00:45:30.900Z,46.90
2022-08-28T00:47:57.637Z,46.20
2022-08-28T00:50:27.768Z,55.90
2022-08-28T00:52:59.839Z,46.90
2022-08-28T00:55:28.345Z,46.10
2022-08-28T00:57:59.095Z,45.80
2022-08-28T01:00:33.791Z,45.70
2022-08-28T01:03:01.351Z,45.40
2022-08-28T01:05:29.756Z,45.80
2022-08-28T01:07:58.827Z,45.90
2022-08-28T01:10:29.330Z,45.50
2022-08-28T01:12:57.585Z,45.20
2022-08-28T01:15:31.937Z,45.40
2022-08-28T01:18:08.058Z,45.40
2022-08-28T01:20:42.543Z,45.30
2022-08-28T01:23:29.054Z,45.50
2022-08-28T01:25:57.528Z,47.10
2022-08-28T01:28:24.500Z,45.70
2022-08-28T01:30:51.254Z,45.50
2022-08-28T01:33:18.430Z,45.40
2022-08-28T01:35:47.695Z,45.20
2022-08-28T01:38:19.623Z,44.80
2022-08-28T01:40:53.264Z,44.80
2022-08-28T01:43:23.584Z,45.10
2022-08-28T01:45:57.563Z,44.90
2022-08-28T01:48:26.497Z,44.70
2022-08-28T01:50:53.278Z,44.90
2022-08-28T01:53:25.133Z,45.20
2022-08-28T01:55:55.700Z,45.10
2022-08-28T01:58:23.983Z,45.00
2022-08-28T02:00:50.668Z,45.00
2022-08-28T02:03:17.392Z,55.90
2022-08-28T02:05:44.222Z,46.30
2022-08-28T02:08:10.984Z,45.20
2022-08-28T02:10:39.528Z,45.10
2022-08-28T02:13:07.709Z,45.00
2022-08-28T02:15:36.471Z,44.80
2022-08-28T02:18:03.881Z,44.90
2022-08-28T02:20:31.132Z,44.80
2022-08-28T02:22:58.518Z,45.00
2022-08-28T02:25:27.274Z,44.70
2022-08-28T02:27:54.828Z,45.00
2022-08-28T02:30:22.190Z,44.50
2022-08-28T02:32:50.057Z,44.80
2022-08-28T02:35:18.800Z,44.60
2022-08-28T02:37:47.738Z,45.00
2022-08-28T02:40:16.955Z,44.90
2022-08-28T02:42:44.575Z,44.10
2022-08-28T02:45:12.668Z,44.30
2022-08-28T02:47:40.931Z,44.50
2022-08-28T02:50:10.330Z,44.70
2022-08-28T02:52:37.656Z,55.70
2022-08-28T02:55:05.934Z,45.80
2022-08-28T02:57:32.899Z,44.70
2022-08-28T02:59:59.853Z,44.90
2022-08-28T03:02:26.720Z,44.40
2022-08-28T03:04:54.484Z,44.20
2022-08-28T03:07:22.635Z,44.40
2022-08-28T03:09:50.051Z,44.70
2022-08-28T03:12:17.147Z,44.40
2022-08-28T03:14:43.899Z,44.70
2022-08-28T03:17:10.951Z,44.00
2022-08-28T03:19:37.751Z,43.90
2022-08-28T03:22:04.639Z,44.00
2022-08-28T03:24:31.417Z,43.80
2022-08-28T03:26:58.465Z,43.80
2022-08-28T03:29:25.169Z,44.00
2022-08-28T03:31:52.719Z,43.90
2022-08-28T03:34:19.551Z,43.70
2022-08-28T03:36:46.504Z,44.20
2022-08-28T03:39:13.904Z,43.80
2022-08-28T03:41:41.148Z,43.60
2022-08-28T03:44:07.908Z,43.60
2022-08-28T03:46:35.533Z,43.60
2022-08-28T03:49:04.299Z,43.00
2022-08-28T03:51:34.183Z,43.20
2022-08-28T03:54:01.868Z,43.20
2022-08-28T03:56:30.485Z,43.10
2022-08-28T03:59:00.190Z,43.50
2022-08-28T04:01:27.226Z,43.00
2022-08-28T04:03:54.086Z,43.20
2022-08-28T04:06:20.861Z,43.10
2022-08-28T04:08:47.943Z,43.20
2022-08-28T04:11:15.060Z,42.90
2022-08-28T04:13:42.088Z,42.90
2022-08-28T04:16:12.135Z,42.90
2022-08-28T04:18:41.795Z,42.60
2022-08-28T04:21:15.035Z,42.80
2022-08-28T04:23:43.467Z,42.60
2022-08-28T04:26:11.357Z,42.90
2022-08-28T04:28:38.515Z,53.60
2022-08-28T04:31:08.031Z,44.50
2022-08-28T04:33:35.773Z,43.50
2022-08-28T04:36:05.965Z,43.20
2022-08-28T04:38:32.959Z,43.20
2022-08-28T04:40:59.765Z,43.10
2022-08-28T04:43:26.634Z,43.30
2022-08-28T04:45:53.440Z,43.00
2022-08-28T04:48:20.206Z,43.10
2022-08-28T04:50:49.232Z,42.90
2022-08-28T04:53:18.908Z,42.60
2022-08-28T04:55:53.858Z,42.50
2022-08-28T04:58:24.047Z,42.70
2022-08-28T05:00:52.954Z,43.00
2022-08-28T05:03:20.551Z,43.10
2022-08-28T05:05:53.211Z,42.80
2022-08-28T05:08:24.067Z,42.70
2022-08-28T05:10:51.054Z,42.60
2022-08-28T05:13:18.567Z,42.90
2022-08-28T05:15:50.908Z,42.70
2022-08-28T05:18:21.313Z,42.50
2022-08-28T05:20:48.677Z,42.60
2022-08-28T05:23:17.988Z,42.70
2022-08-28T05:25:48.008Z,42.90
2022-08-28T05:28:19.505Z,42.50
2022-08-28T05:30:46.918Z,42.80
2022-08-28T05:33:15.153Z,43.00
2022-08-28T05:35:45.207Z,42.90
2022-08-28T05:38:13.561Z,41.60
2022-08-28T05:40:46.287Z,41.50
2022-08-28T05:43:15.269Z,41.50
2022-08-28T05:45:42.696Z,41.60
2022-08-28T05:48:09.721Z,41.80
2022-08-28T05:50:39.682Z,42.00
2022-08-28T05:53:13.921Z,42.00
2022-08-28T05:55:40.879Z,42.40
2022-08-28T05:58:26.323Z,42.30
2022-08-28T06:00:53.205Z,42.40
2022-08-28T06:03:19.902Z,42.70
2022-08-28T06:05:46.608Z,42.80
2022-08-28T06:08:13.584Z,43.80
2022-08-28T06:10:45.912Z,44.40
2022-08-28T06:13:17.679Z,44.40
2022-08-28T06:15:47.006Z,44.90
2022-08-28T06:18:15.495Z,45.10
2022-08-28T06:20:44.887Z,45.20
2022-08-28T06:23:16.038Z,45.30
2022-08-28T06:25:51.917Z,45.50
2022-08-28T06:28:24.031Z,45.60
2022-08-28T06:31:18.623Z,45.60
2022-08-28T06:33:39.910Z,46.00
2022-08-28T06:36:07.779Z,46.40
2022-08-28T06:38:34.970Z,46.40
2022-08-28T06:41:02.488Z,46.70
2022-08-28T06:43:29.715Z,46.70
2022-08-28T06:45:57.851Z,47.00
2022-08-28T06:48:27.513Z,47.20
2022-08-28T06:50:55.866Z,47.40
2022-08-28T06:53:25.638Z,47.60
2022-08-28T06:56:18.423Z,47.90
2022-08-28T06:58:55.183Z,49.50
2022-08-28T07:01:25.566Z,48.60
2022-08-28T07:03:54.650Z,49.00
2022-08-28T07:06:23.415Z,49.20
2022-08-28T07:08:51.052Z,49.80
2022-08-28T07:11:26.077Z,50.40
2022-08-28T07:13:53.854Z,50.30
2022-08-28T07:16:23.102Z,50.40
2022-08-28T07:18:51.718Z,50.80
2022-08-28T07:21:18.506Z,51.10
2022-08-28T07:23:46.222Z,51.30
2022-08-28T07:26:16.711Z,51.40
2022-08-28T07:28:45.508Z,51.40
2022-08-28T07:31:19.051Z,51.90
2022-08-28T07:33:46.635Z,52.10
2022-08-28T07:36:29.373Z,53.40
2022-08-28T07:38:58.398Z,52.20
2022-08-28T07:41:28.441Z,52.70
2022-08-28T07:44:13.919Z,53.30
2022-08-28T07:46:41.171Z,53.40
2022-08-28T07:49:10.850Z,52.40
2022-08-28T07:51:37.748Z,52.50
2022-08-28T07:54:05.253Z,52.60
2022-08-28T07:56:32.752Z,52.50
2022-08-28T07:59:03.337Z,52.50
2022-08-28T08:01:31.476Z,52.50
2022-08-28T08:04:01.609Z,52.80
2022-08-28T08:06:34.490Z,52.60
2022-08-28T08:09:02.331Z,51.10
2022-08-28T08:11:32.246Z,51.40
2022-08-28T08:14:05.685Z,51.20
2022-08-28T08:16:39.090Z,51.40
2022-08-28T08:19:09.620Z,51.90
2022-08-28T08:21:37.149Z,52.10
2022-08-28T08:24:04.119Z,52.30
2022-08-28T08:26:30.837Z,52.00
2022-08-28T08:28:58.102Z,52.50
2022-08-28T08:31:26.778Z,51.70
2022-08-28T08:33:57.406Z,51.70
2022-08-28T08:36:26.573Z,51.40
2022-08-28T08:38:59.361Z,51.50
2022-08-28T08:41:34.689Z,51.30
2022-08-28T08:44:03.597Z,50.80
2022-08-28T08:46:46.235Z,50.90
2022-08-28T08:49:18.840Z,51.30
2022-08-28T08:52:08.107Z,51.00
2022-08-28T08:54:59.254Z,49.90
2022-08-28T08:57:27.617Z,51.00
2022-08-28T08:59:54.565Z,50.70
2022-08-28T09:02:31.206Z,50.60
2022-08-28T09:05:13.515Z,50.40
2022-08-28T09:07:53.267Z,50.80
2022-08-28T09:10:20.157Z,50.00
2022-08-28T09:12:57.236Z,49.70
2022-08-28T09:15:31.328Z,49.40
2022-08-28T09:18:10.860Z,49.00
2022-08-28T09:20:37.671Z,50.50
2022-08-28T09:23:13.095Z,49.60
2022-08-28T09:26:12.572Z,48.60
2022-08-28T09:28:41.442Z,49.50
2022-08-28T09:31:09.622Z,48.80
2022-08-28T09:33:38.699Z,53.50
2022-08-28T09:36:29.122Z,54.20
2022-08-28T09:39:04.917Z,50.60
2022-08-28T09:41:51.407Z,50.80
2022-08-28T09:44:18.136Z,49.40
2022-08-28T09:46:51.287Z,49.80
2022-08-28T09:49:25.542Z,49.10
2022-08-28T09:51:52.793Z,48.10
2022-08-28T09:54:42.707Z,49.40
2022-08-28T09:57:09.419Z,49.40
2022-08-28T09:59:36.136Z,49.10
2022-08-28T10:02:18.093Z,48.80
2022-08-28T10:05:02.589Z,49.60
2022-08-28T10:07:46.409Z,49.10
2022-08-28T10:10:19.009Z,48.20
2022-08-28T10:13:01.436Z,48.60
2022-08-28T10:15:49.886Z,48.70
2022-08-28T10:18:54.253Z,48.40
2022-08-28T10:21:34.929Z,49.40
2022-08-28T10:24:08.430Z,49.00
2022-08-28T10:26:54.199Z,48.40
2022-08-28T10:29:41.281Z,48.50
2022-08-28T10:32:21.143Z,48.50
2022-08-28T10:34:59.714Z,49.20
2022-08-28T10:37:41.559Z,48.90
2022-08-28T10:40:23.056Z,49.30
2022-08-28T10:43:11.560Z,48.00
2022-08-28T10:45:39.524Z,49.00
2022-08-28T10:48:32.027Z,47.60
2022-08-28T10:51:11.728Z,47.70
2022-08-28T10:53:52.932Z,47.10
2022-08-28T10:56:30.369Z,47.60
2022-08-28T10:58:59.274Z,47.40
2022-08-28T11:01:28.297Z,46.60
2022-08-28T11:03:57.187Z,47.10
2022-08-28T11:06:51.108Z,47.30
2022-08-28T11:09:34.302Z,47.10
2022-08-28T11:12:09.585Z,46.60
2022-08-28T11:14:48.120Z,46.80
2022-08-28T11:17:25.307Z,47.50
2022-08-28T11:20:10.657Z,46.80
2022-08-28T11:22:48.857Z,46.70
2022-08-28T11:25:32.492Z,47.00
2022-08-28T11:28:25.478Z,47.10
2022-08-28T11:31:19.153Z,47.60
2022-08-28T11:33:58.931Z,49.60
2022-08-28T11:36:28.097Z,47.30
2022-08-28T11:38:55.495Z,47.10
2022-08-28T11:41:38.544Z,47.20
2022-08-28T11:44:12.411Z,46.70
2022-08-28T11:46:48.704Z,46.00
2022-08-28T11:49:26.173Z,46.60
2022-08-28T11:52:11.851Z,46.20
2022-08-28T11:55:03.709Z,46.20
2022-08-28T12:00:55.012Z,46.20
2022-08-28T12:03:36.838Z,45.90
2022-08-28T12:06:04.323Z,45.50
2022-08-28T12:08:48.742Z,45.10
2022-08-28T12:11:40.273Z,47.30
2022-08-28T12:14:35.676Z,45.70
2022-08-28T12:17:05.810Z,49.00
2022-08-28T12:19:54.614Z,45.80
2022-08-28T12:22:26.334Z,45.50
2022-08-28T12:24:59.217Z,43.90
2022-08-28T12:27:26.881Z,42.90
2022-08-28T12:29:59.244Z,43.80
2022-08-28T12:32:28.734Z,43.90
2022-08-28T12:34:58.442Z,44.20
2022-08-28T12:37:52.767Z,43.80
2022-08-28T12:40:25.322Z,45.10
2022-08-28T12:43:01.837Z,43.70
2022-08-28T12:45:56.345Z,43.00
2022-08-28T12:48:33.693Z,42.00
2022-08-28T12:51:14.963Z,42.10
2022-08-28T12:53:49.921Z,42.30
2022-08-28T12:56:19.395Z,40.30
2022-08-28T12:58:47.658Z,40.60
2022-08-28T13:01:27.567Z,41.20
2022-08-28T13:04:04.409Z,42.60
2022-08-28T13:06:36.621Z,43.20
2022-08-28T13:09:24.613Z,41.10
2022-08-28T13:11:51.689Z,40.40
2022-08-28T13:14:43.948Z,41.30
2022-08-28T13:17:12.792Z,41.00
2022-08-28T13:19:40.047Z,40.70
2022-08-28T13:22:28.433Z,41.00
2022-08-28T13:25:00.435Z,41.70
2022-08-28T13:27:28.190Z,42.00
2022-08-28T13:30:20.857Z,42.30
2022-08-28T13:33:04.525Z,43.10
2022-08-28T13:35:36.158Z,42.10
2022-08-28T13:38:07.027Z,41.00
2022-08-28T13:40:59.350Z,41.10
2022-08-28T13:43:29.658Z,42.00
2022-08-28T13:45:56.842Z,41.00
2022-08-28T13:48:27.698Z,41.40
2022-08-28T13:51:03.112Z,41.70
2022-08-28T13:53:32.329Z,42.00
2022-08-28T13:56:00.360Z,41.70
2022-08-28T13:58:28.195Z,42.30
2022-08-28T14:00:57.351Z,41.90
2022-08-28T14:03:36.356Z,42.00
2022-08-28T14:06:11.569Z,43.20
2022-08-28T14:08:40.317Z,43.40
2022-08-28T14:11:12.738Z,43.70
2022-08-28T14:13:40.734Z,43.40
2022-08-28T14:16:16.711Z,43.80
2022-08-28T14:18:43.566Z,43.20
2022-08-28T14:21:10.289Z,43.50
2022-08-28T14:23:37.060Z,43.80
2022-08-28T14:26:05.803Z,43.20
2022-08-28T14:28:32.575Z,42.90
2022-08-28T14:30:59.306Z,42.80
2022-08-28T14:33:26.026Z,43.50
2022-08-28T14:35:52.851Z,42.10
2022-08-28T14:38:19.526Z,42.60
2022-08-28T14:40:46.334Z,42.40
2022-08-28T14:43:14.642Z,42.80
2022-08-28T14:45:46.295Z,42.60
2022-08-28T14:48:14.747Z,42.60
2022-08-28T14:50:42.367Z,43.30
2022-08-28T14:53:09.713Z,44.60
2022-08-28T14:55:41.849Z,43.10
2022-08-28T14:58:08.607Z,43.10
2022-08-28T15:00:40.195Z,43.10
2022-08-28T15:03:07.152Z,43.20
2022-08-28T15:05:34.122Z,43.10
2022-08-28T15:08:00.905Z,43.10
2022-08-28T15:10:27.635Z,42.60
2022-08-28T15:12:54.327Z,42.10
2022-08-28T15:15:22.559Z,41.70
2022-08-28T15:17:49.265Z,41.80
2022-08-28T15:20:16.081Z,41.90
2022-08-28T15:22:42.963Z,42.10
2022-08-28T15:25:09.801Z,41.90
2022-08-28T15:27:36.658Z,42.20
2022-08-28T15:30:04.518Z,42.20
2022-08-28T15:32:31.721Z,42.30
2022-08-28T15:34:58.484Z,42.20
2022-08-28T15:37:25.279Z,42.20
2022-08-28T15:40:10.830Z,41.80
2022-08-28T15:42:37.668Z,42.10
2022-08-28T15:45:04.744Z,42.60
2022-08-28T15:47:31.445Z,42.80
2022-08-28T15:49:58.286Z,42.80
2022-08-28T15:52:25.159Z,42.10
2022-08-28T15:54:52.769Z,42.30
2022-08-28T15:57:19.659Z,42.50
2022-08-28T15:59:49.451Z,42.10
2022-08-28T16:02:22.773Z,42.40
2022-08-28T16:04:50.269Z,42.50
2022-08-28T16:07:18.492Z,42.80
2022-08-28T16:09:45.431Z,42.30
2022-08-28T16:12:12.333Z,44.00
2022-08-28T16:14:39.046Z,43.10
2022-08-28T16:17:10.634Z,43.20
2022-08-28T16:19:42.163Z,43.50
2022-08-28T16:22:15.961Z,42.70
2022-08-28T16:24:43.911Z,43.20
2022-08-28T16:27:15.476Z,43.40
2022-08-28T16:29:43.590Z,43.50
2022-08-28T16:32:11.853Z,43.50
2022-08-28T16:34:39.827Z,43.50
2022-08-28T16:37:07.782Z,43.80
2022-08-28T16:39:35.334Z,44.50
2022-08-28T16:42:02.127Z,48.10
2022-08-28T16:44:28.902Z,45.20
2022-08-28T16:46:56.102Z,44.20
2022-08-28T16:49:23.727Z,43.40
2022-08-28T16:51:50.886Z,43.00
2022-08-28T16:54:18.384Z,43.10
2022-08-28T16:56:46.191Z,43.40
2022-08-28T16:59:20.392Z,43.00
2022-08-28T17:01:53.122Z,43.00
2022-08-28T17:04:21.609Z,42.90
2022-08-28T17:06:48.483Z,42.60
2022-08-28T17:09:15.235Z,42.70
2022-08-28T17:11:42.048Z,43.20
2022-08-28T17:14:11.017Z,43.40
2022-08-28T17:16:37.858Z,43.60
2022-08-28T17:19:04.687Z,43.20
2022-08-28T17:21:50.388Z,43.00
2022-08-28T17:24:17.162Z,42.80
2022-08-28T17:26:44.483Z,43.20
2022-08-28T17:29:11.567Z,43.70
2022-08-28T17:31:39.182Z,43.40
2022-08-28T17:34:10.458Z,43.60
2022-08-28T17:36:39.351Z,43.50
2022-08-28T17:39:09.298Z,44.10
2022-08-28T17:41:36.060Z,44.10
2022-08-28T17:44:03.271Z,44.30
2022-08-28T17:46:33.979Z,44.80
2022-08-28T17:49:05.357Z,44.60
2022-08-28T17:51:42.050Z,44.90
2022-08-28T17:54:10.858Z,44.90
2022-08-28T17:56:38.006Z,45.40
2022-08-28T17:59:05.045Z,45.50
2022-08-28T18:01:32.001Z,45.80
2022-08-28T18:03:58.864Z,46.60
2022-08-28T18:06:25.616Z,46.20
2022-08-28T18:08:52.387Z,46.10
2022-08-28T18:11:19.356Z,46.10
2022-08-28T18:13:46.492Z,46.40
2022-08-28T18:16:13.576Z,46.50
2022-08-28T18:18:41.466Z,46.70
2022-08-28T18:21:10.607Z,46.90
2022-08-28T18:23:37.818Z,47.10
2022-08-28T18:26:04.766Z,47.00
2022-08-28T18:28:33.493Z,47.30
2022-08-28T18:31:01.321Z,47.40
2022-08-28T18:33:29.682Z,47.50
2022-08-28T18:35:57.064Z,47.70
2022-08-28T18:38:27.810Z,47.70
2022-08-28T18:40:55.527Z,48.00
2022-08-28T18:43:22.530Z,47.70
2022-08-28T18:45:49.573Z,47.80
2022-08-28T18:48:16.556Z,47.80
2022-08-28T18:50:46.409Z,47.90
2022-08-28T18:53:14.275Z,48.00
2022-08-28T18:55:41.323Z,48.10
2022-08-28T18:58:11.114Z,48.20
2022-08-28T19:00:42.246Z,48.30
2022-08-28T19:03:09.414Z,48.30
2022-08-28T19:05:38.277Z,48.40
2022-08-28T19:08:05.855Z,48.40
2022-08-28T19:10:34.976Z,48.50
2022-08-28T19:13:02.776Z,49.10
2022-08-28T19:15:31.221Z,48.80
2022-08-28T19:18:00.313Z,48.70
2022-08-28T19:20:28.240Z,48.90
2022-08-28T19:22:56.115Z,48.80
2022-08-28T19:25:28.346Z,48.90
2022-08-28T19:27:59.262Z,49.00
2022-08-28T19:30:31.017Z,49.10
2022-08-28T19:32:57.816Z,49.20
2022-08-28T19:35:26.286Z,49.30
2022-08-28T19:37:54.086Z,49.40
2022-08-28T19:40:21.291Z,49.30
2022-08-28T19:42:49.936Z,49.50
2022-08-28T19:45:17.141Z,49.60
2022-08-28T19:47:44.093Z,49.70
2022-08-28T19:50:12.219Z,49.80
2022-08-28T19:52:39.799Z,49.90
2022-08-28T19:55:07.465Z,49.90
2022-08-28T19:57:34.574Z,50.00
2022-08-28T20:00:02.050Z,50.00
2022-08-28T20:02:29.562Z,50.20
2022-08-28T20:04:56.539Z,50.20
2022-08-28T20:07:24.812Z,50.20
2022-08-28T20:09:52.184Z,50.40
2022-08-28T20:12:19.590Z,50.20
2022-08-28T20:14:46.490Z,50.40
2022-08-28T20:17:14.087Z,50.70
2022-08-28T20:19:41.429Z,50.90
2022-08-28T20:22:08.237Z,50.90
2022-08-28T20:24:35.300Z,51.00
2022-08-28T20:27:02.077Z,51.10
2022-08-28T20:29:29.214Z,51.10
2022-08-28T20:31:56.142Z,50.80
2022-08-28T20:34:23.309Z,51.00
2022-08-28T20:36:50.028Z,51.30
2022-08-28T20:39:16.879Z,51.20
2022-08-28T20:41:44.876Z,51.10
2022-08-28T20:44:13.730Z,51.50
2022-08-28T20:46:42.126Z,51.60
2022-08-28T20:49:11.010Z,51.80
2022-08-28T20:51:53.416Z,51.80
2022-08-28T20:54:21.487Z,51.70
2022-08-28T20:56:50.953Z,51.90
2022-08-28T20:59:18.584Z,51.90
2022-08-28T21:01:45.441Z,52.10
2022-08-28T21:04:12.329Z,52.20
2022-08-28T21:06:39.097Z,52.10
2022-08-28T21:09:05.856Z,52.30
2022-08-28T21:11:32.573Z,52.20
2022-08-28T21:13:59.342Z,52.10
2022-08-28T21:16:26.106Z,52.30
2022-08-28T21:19:14.399Z,52.20
2022-08-28T21:21:41.202Z,52.30
2022-08-28T21:24:10.681Z,52.30
2022-08-28T21:26:39.360Z,52.40
2022-08-28T21:29:10.208Z,52.30
2022-08-28T21:31:37.496Z,52.20
2022-08-28T21:34:04.185Z,52.20
2022-08-28T21:36:31.555Z,52.00
2022-08-28T21:38:58.485Z,52.00
2022-08-28T21:41:25.483Z,52.00
2022-08-28T21:43:52.245Z,52.00
2022-08-28T21:46:19.241Z,52.00
2022-08-28T21:48:49.552Z,51.90
2022-08-28T21:51:18.058Z,51.80
2022-08-28T21:53:44.773Z,51.60
2022-08-28T21:56:15.148Z,51.60
2022-08-28T21:58:41.981Z,51.50
2022-08-28T22:08:40.828Z,51.80
2022-08-28T22:11:08.528Z,51.10
2022-08-28T22:13:35.582Z,51.10
2022-08-28T22:16:02.753Z,51.10
2022-08-28T22:18:32.056Z,51.10
2022-08-28T22:21:20.281Z,50.80
2022-08-28T22:26:19.272Z,50.90
2022-08-28T22:28:46.955Z,51.30
2022-08-28T22:31:13.882Z,51.00
2022-08-28T22:33:41.246Z,51.10
2022-08-28T22:36:09.901Z,50.90
2022-08-28T22:38:38.082Z,51.10
2022-08-28T22:41:06.357Z,51.30
2022-08-28T22:43:33.308Z,51.30
2022-08-28T22:46:00.251Z,51.40
2022-08-28T22:48:27.158Z,51.40
2022-08-28T22:51:14.640Z,51.60
2022-08-28T22:53:43.644Z,51.80
2022-08-28T22:56:11.857Z,51.80
2022-08-28T22:58:39.415Z,52.50
2022-08-28T23:01:11.293Z,51.80
2022-08-28T23:03:39.655Z,51.90
2022-08-28T23:06:06.850Z,51.80
2022-08-28T23:08:34.297Z,51.80
2022-08-28T23:11:01.385Z,51.80
2022-08-28T23:13:29.658Z,51.80
2022-08-28T23:15:56.472Z,52.00
2022-08-28T23:18:23.233Z,52.00
2022-08-28T23:20:50.452Z,52.10
2022-08-28T23:23:18.897Z,52.00
2022-08-28T23:28:12.980Z,52.10
2022-08-28T23:33:23.144Z,52.20
2022-08-28T23:35:51.392Z,52.10
2022-08-28T23:43:16.136Z,52.20
2022-08-28T23:45:44.634Z,52.20
2022-08-28T23:48:11.754Z,52.20
2022-08-28T23:50:41.299Z,52.20
2022-08-28T23:53:09.330Z,52.10
2022-08-28T23:55:36.813Z,52.10
2022-08-28T23:58:04.075Z,52.20
